Time;durP1;ratioP1;P1;durP2;ratioP2;P2;SDS_P1;SDS_P2;PMS_P1;PMS_P2;Temp;Humidity;BMP_temperature;BMP_pressure;BME280_temperature;BME280_humidity;BME280_pressure;Samples;Min_cycle;Max_cycle;Signal;HPM_P1;HPM_P2
2022/08/11 00:01:53;;;;;;;1.88;1.00;;;23.80;43.90;;;;;;5012599;28;20029;-86
2022/08/11 00:04:22;;;;;;;1.42;1.02;;;23.80;43.90;;;;;;4999751;28;20035;-86
2022/08/11 00:06:49;;;;;;;0.95;0.90;;;23.70;43.80;;;;;;5021082;28;20022;-87
2022/08/11 00:09:20;;;;;;;2.88;1.27;;;23.70;43.90;;;;;;5030336;28;20030;-85
2022/08/11 00:11:48;;;;;;;3.20;1.45;;;23.60;43.80;;;;;;5013500;28;20360;-87
2022/08/11 00:14:21;;;;;;;2.38;1.60;;;23.60;43.90;;;;;;5028779;28;20029;-89
2022/08/11 00:17:10;;;;;;;1.88;1.23;;;23.50;43.80;;;;;;5011309;28;20029;-90
2022/08/11 00:19:47;;;;;;;1.52;1.35;;;23.50;44.00;;;;;;5001328;28;20209;-90
2022/08/11 00:22:20;;;;;;;1.25;1.10;;;23.50;44.00;;;;;;5009579;28;20028;-91
2022/08/11 00:24:48;;;;;;;2.13;1.30;;;23.50;44.10;;;;;;5027025;28;20028;-89
2022/08/11 00:27:14;;;;;;;1.40;1.30;;;23.40;44.00;;;;;;5025034;28;20043;-88
2022/08/11 00:29:45;;;;;;;1.40;1.10;;;23.30;43.90;;;;;;5017690;28;20056;-89
2022/08/11 00:32:13;;;;;;;2.97;1.80;;;23.30;44.00;;;;;;5012281;28;20025;-90
2022/08/11 00:34:45;;;;;;;1.98;1.17;;;23.30;44.10;;;;;;5000625;28;20094;-91
2022/08/11 00:37:18;;;;;;;3.10;1.95;;;23.20;44.10;;;;;;5018440;28;20036;-91
2022/08/11 00:39:54;;;;;;;2.45;1.15;;;23.20;44.20;;;;;;5019536;28;20037;-90
2022/08/11 00:42:42;;;;;;;3.30;1.27;;;23.20;44.20;;;;;;4992799;28;20033;-90
2022/08/11 00:45:26;;;;;;;1.83;1.40;;;23.10;44.20;;;;;;4995854;28;20043;-92
2022/08/11 00:47:59;;;;;;;1.88;1.50;;;23.10;44.30;;;;;;4975498;28;20099;-91
2022/08/11 00:50:42;;;;;;;2.80;1.20;;;23.00;44.20;;;;;;4989461;28;20072;-91
2022/08/11 00:53:33;;;;;;;1.98;1.45;;;23.00;44.30;;;;;;5018169;28;20102;-90
2022/08/11 00:56:22;;;;;;;3.42;2.22;;;23.00;44.40;;;;;;5010012;28;20183;-89
2022/08/11 00:59:27;;;;;;;2.45;1.90;;;22.90;44.20;;;;;;4983797;28;20036;-92
2022/08/11 01:02:18;;;;;;;1.48;1.35;;;22.90;44.30;;;;;;4958720;28;20048;-90
2022/08/11 01:05:11;;;;;;;2.22;1.80;;;22.90;44.30;;;;;;4992103;28;20459;-89
2022/08/11 01:08:12;;;;;;;;;;;22.90;44.50;;;;;;4998666;28;20036;-90
2022/08/11 01:11:12;;;;;;;1.73;1.20;;;22.80;44.10;;;;;;5007547;28;19913;-91
2022/08/11 01:14:11;;;;;;;2.83;1.63;;;22.80;44.20;;;;;;4999716;28;20033;-91
2022/08/11 01:16:55;;;;;;;1.20;1.10;;;22.70;44.10;;;;;;4976227;28;20025;-89
2022/08/11 01:19:24;;;;;;;2.42;1.80;;;22.70;44.30;;;;;;5002195;28;20026;-91
2022/08/11 01:21:50;;;;;;;3.70;1.52;;;22.70;44.30;;;;;;5010342;28;20067;-87
2022/08/11 01:25:10;;;;;;;2.08;1.88;;;22.70;44.40;;;;;;4991517;28;20436;-86
2022/08/11 01:27:41;;;;;;;2.42;1.42;;;22.70;44.70;;;;;;4943645;28;20030;-88
2022/08/11 01:30:29;;;;;;;1.90;1.20;;;22.60;44.50;;;;;;4997004;28;20221;-86
2022/08/11 01:33:20;;;;;;;1.88;1.45;;;22.60;44.70;;;;;;5026024;28;20041;-87
2022/08/11 01:36:05;;;;;;;1.45;1.30;;;22.60;44.70;;;;;;4989080;28;20036;-87
2022/08/11 01:39:09;;;;;;;1.73;1.30;;;22.60;44.70;;;;;;5006478;28;20030;-95
2022/08/11 01:45:02;;;;;;;1.90;1.55;;;22.50;44.70;;;;;;5021753;28;20040;-87
2022/08/11 01:47:51;;;;;;;1.70;1.45;;;22.50;44.90;;;;;;4990502;28;20038;-90
2022/08/11 01:50:35;;;;;;;1.88;1.42;;;22.50;45.00;;;;;;5011417;28;20337;-87
2022/08/11 01:53:04;;;;;;;2.95;1.30;;;22.40;44.70;;;;;;5003061;28;20363;-85
2022/08/11 01:55:46;;;;;;;3.90;1.65;;;22.40;44.80;;;;;;5027160;28;20408;-88
2022/08/11 01:58:50;;;;;;;1.40;1.30;;;22.40;45.00;;;;;;5009016;28;20319;-89
2022/08/11 02:01:27;;;;;;;2.13;1.63;;;22.30;45.00;;;;;;5027249;28;20033;-90
2022/08/11 02:04:30;;;;;;;1.98;1.30;;;22.30;45.00;;;;;;5000039;28;20021;-89
2022/08/11 02:07:02;;;;;;;1.40;1.20;;;22.30;45.10;;;;;;5007152;28;20107;-90
2022/08/11 02:09:46;;;;;;;1.35;1.08;;;22.30;45.10;;;;;;5016940;28;20045;-89
2022/08/11 02:12:34;;;;;;;3.97;1.98;;;22.30;45.20;;;;;;5031108;28;20031;-90
2022/08/11 02:15:37;;;;;;;2.33;1.50;;;22.20;45.20;;;;;;5035277;28;20043;-88
2022/08/11 02:23:38;;;;;;;1.13;0.80;;;22.20;45.30;;;;;;5010285;28;20110;-89
2022/08/11 02:24:39;;;;;;;3.07;1.60;;;22.10;45.70;;;;;;4952328;28;20035;-90
2022/08/11 02:27:22;;;;;;;2.38;1.42;;;22.10;45.20;;;;;;4980368;28;20284;-90
2022/08/11 02:30:05;;;;;;;1.50;1.40;;;22.10;45.40;;;;;;4990001;28;20049;-90
2022/08/11 02:36:02;;;;;;;1.83;1.40;;;22.00;45.30;;;;;;5012228;28;20037;-91
2022/08/11 02:39:05;;;;;;;2.15;1.58;;;22.00;45.40;;;;;;5027864;28;20110;-91
2022/08/11 02:44:46;;;;;;;;;;;21.90;45.20;;;;;;5052298;28;19901;-87
2022/08/11 02:49:52;;;;;;;1.42;1.33;;;21.90;45.00;;;;;;5044622;28;19937;-92
2022/08/11 02:50:51;;;;;;;0.95;0.93;;;21.80;45.00;;;;;;5055793;28;20128;-91
2022/08/11 02:53:39;;;;;;;1.52;1.42;;;21.80;45.10;;;;;;5036490;28;20076;-86
2022/08/11 02:56:43;;;;;;;2.20;1.40;;;21.80;45.30;;;;;;5048949;28;20132;-89
2022/08/11 02:59:51;;;;;;;1.75;1.10;;;21.70;45.30;;;;;;4993109;28;20748;-87
2022/08/11 03:02:53;;;;;;;1.58;1.23;;;21.70;45.40;;;;;;5022003;28;20039;-88
2022/08/11 03:05:33;;;;;;;1.47;1.37;;;21.70;45.50;;;;;;5016679;28;20037;-89
2022/08/11 03:08:07;;;;;;;1.55;1.45;;;21.70;45.60;;;;;;5002911;28;20286;-89
2022/08/11 03:10:42;;;;;;;2.08;1.50;;;21.60;45.50;;;;;;5003380;28;20037;-86
2022/08/11 03:19:22;;;;;;;3.42;1.95;;;21.60;45.80;;;;;;5001734;28;20029;-89
2022/08/11 03:22:13;;;;;;;2.22;1.48;;;21.60;45.90;;;;;;4995235;28;20503;-87
2022/08/11 03:24:45;;;;;;;1.77;1.67;;;21.60;46.00;;;;;;5014430;28;20041;-88
2022/08/11 03:27:30;;;;;;;1.35;1.13;;;21.50;45.80;;;;;;4998615;28;20033;-86
2022/08/11 03:30:31;;;;;;;2.00;1.25;;;21.50;45.90;;;;;;5025996;28;20046;-89
2022/08/11 03:36:19;;;;;;;4.15;1.50;;;21.50;46.10;;;;;;5018152;28;20504;-94
2022/08/11 03:39:08;;;;;;;1.65;1.55;;;21.40;45.90;;;;;;5022878;28;20547;-91
2022/08/11 03:41:49;;;;;;;3.25;2.17;;;21.40;46.00;;;;;;5036771;28;20112;-92
2022/08/11 03:44:30;;;;;;;1.20;0.98;;;21.40;46.10;;;;;;5031836;28;20108;-89
2022/08/11 03:47:14;;;;;;;1.83;1.60;;;21.40;46.10;;;;;;5033240;28;20037;-91
2022/08/11 03:49:48;;;;;;;2.30;1.77;;;21.40;46.30;;;;;;5020774;28;20048;-90
2022/08/11 03:52:26;;;;;;;1.23;1.00;;;21.40;46.30;;;;;;5048436;28;20113;-90
2022/08/11 03:55:12;;;;;;;2.28;1.30;;;21.30;46.30;;;;;;5019113;28;20048;-89
2022/08/11 03:57:58;;;;;;;2.05;1.20;;;21.30;46.40;;;;;;5000325;28;20163;-90
2022/08/11 04:01:01;;;;;;;2.88;1.98;;;21.30;46.40;;;;;;5013192;28;20045;-86
2022/08/11 04:03:46;;;;;;;1.50;1.40;;;21.20;46.40;;;;;;5022257;28;20057;-86
2022/08/11 04:06:18;;;;;;;2.85;1.48;;;21.20;46.30;;;;;;5028160;28;20082;-86
2022/08/11 04:09:22;;;;;;;1.55;1.17;;;21.20;46.50;;;;;;5014044;28;20148;-87
2022/08/11 04:12:13;;;;;;;1.52;1.15;;;21.20;46.60;;;;;;5026515;28;20079;-87
2022/08/11 04:18:18;;;;;;;1.58;1.40;;;21.10;46.50;;;;;;5027893;28;20082;-86
2022/08/11 04:21:00;;;;;;;1.17;1.02;;;21.10;46.50;;;;;;5031512;28;20025;-85
2022/08/11 04:23:41;;;;;;;1.40;1.30;;;21.10;46.60;;;;;;5025978;28;20472;-86
2022/08/11 04:26:32;;;;;;;1.48;1.35;;;21.00;46.50;;;;;;5014734;28;20018;-85
2022/08/11 04:29:14;;;;;;;4.43;1.75;;;21.00;46.60;;;;;;5019472;28;20049;-86
2022/08/11 04:31:58;;;;;;;1.42;1.30;;;21.00;46.70;;;;;;5018638;28;20082;-86
2022/08/11 04:34:42;;;;;;;1.48;1.23;;;21.00;46.70;;;;;;5015283;28;20025;-86
2022/08/11 04:37:33;;;;;;;1.38;1.27;;;20.90;46.70;;;;;;5026131;28;20033;-86
2022/08/11 04:40:19;;;;;;;1.73;1.38;;;20.90;46.70;;;;;;5024206;28;20864;-85
2022/08/11 04:43:22;;;;;;;1.70;1.50;;;20.90;46.80;;;;;;4996344;28;20037;-85
2022/08/11 04:46:12;;;;;;;2.20;1.55;;;20.80;46.70;;;;;;5015501;28;20060;-87
2022/08/11 05:01:41;;;;;;;2.28;1.55;;;20.70;46.90;;;;;;4999434;28;20049;-88
2022/08/11 05:07:09;;;;;;;3.38;1.67;;;20.60;46.70;;;;;;4996717;28;20095;-84
2022/08/11 05:09:56;;;;;;;1.27;1.17;;;20.60;46.80;;;;;;5025204;28;20041;-87
2022/08/11 05:12:35;;;;;;;2.03;1.45;;;20.60;46.90;;;;;;4995008;28;20083;-94
2022/08/11 05:35:30;;;;;;;1.83;1.73;;;20.80;50.60;;;;;;5004508;28;20026;-84
2022/08/11 05:57:32;;;;;;;5.38;3.08;;;21.60;52.40;;;;;;5019571;28;20465;-93
2022/08/11 06:00:01;;;;;;;4.47;3.08;;;21.70;52.80;;;;;;5007167;28;20034;-84
2022/08/11 06:02:29;;;;;;;3.40;2.47;;;21.90;53.30;;;;;;4977171;28;20101;-83
2022/08/11 06:05:00;;;;;;;4.78;2.88;;;22.00;53.60;;;;;;4998928;28;20017;-88
2022/08/11 06:07:29;;;;;;;3.00;2.30;;;22.20;53.90;;;;;;4998217;28;20408;-86
2022/08/11 06:09:57;;;;;;;4.65;2.83;;;22.40;54.00;;;;;;5017241;28;20098;-89
2022/08/11 06:12:36;;;;;;;5.50;2.63;;;22.60;54.00;;;;;;4992865;28;20047;-86
2022/08/11 06:15:10;;;;;;;4.22;2.28;;;22.90;54.20;;;;;;4994865;28;20079;-84
2022/08/11 06:17:47;;;;;;;4.10;2.33;;;23.20;54.30;;;;;;5028559;28;20093;-90
2022/08/11 06:20:15;;;;;;;3.13;2.50;;;23.50;54.30;;;;;;5006086;28;20030;-86
2022/08/11 06:22:42;;;;;;;3.42;2.42;;;23.80;54.10;;;;;;4998313;28;20055;-85
2022/08/11 06:25:10;;;;;;;2.40;2.05;;;24.10;54.00;;;;;;5015610;28;20034;-84
2022/08/11 06:27:39;;;;;;;4.07;2.15;;;24.50;54.10;;;;;;5027548;28;20033;-85
2022/08/11 06:30:12;;;;;;;3.30;2.25;;;24.70;53.80;;;;;;5017056;28;20124;-89
2022/08/11 06:32:45;;;;;;;2.20;1.75;;;25.10;53.90;;;;;;5038298;28;20034;-87
2022/08/11 06:35:33;;;;;;;3.65;2.13;;;25.40;53.50;;;;;;5033062;28;20040;-93
2022/08/11 06:38:10;;;;;;;2.85;2.10;;;25.80;53.20;;;;;;5010962;28;20659;-89
2022/08/11 06:41:29;;;;;;;2.30;1.73;;;26.10;52.50;;;;;;5016830;28;20028;-89
2022/08/11 06:44:26;;;;;;;4.53;2.05;;;26.60;52.00;;;;;;5018477;28;20034;-90
2022/08/11 06:46:54;;;;;;;2.53;2.13;;;27.10;51.30;;;;;;4973049;28;20031;-89
2022/08/11 06:52:18;;;;;;;2.70;1.63;;;28.10;49.80;;;;;;5028138;28;20072;-86
2022/08/11 06:54:56;;;;;;;2.35;1.70;;;28.60;49.20;;;;;;5037484;28;20026;-87
2022/08/11 07:03:16;;;;;;;2.70;2.03;;;29.90;47.20;;;;;;5025288;28;20030;-88
2022/08/11 07:05:53;;;;;;;2.55;1.50;;;30.50;46.30;;;;;;5026065;28;20457;-84
2022/08/11 07:17:24;;;;;;;2.47;1.63;;;31.90;44.30;;;;;;5025242;28;20029;-85
2022/08/11 07:31:28;;;;;;;2.35;1.90;;;33.30;42.00;;;;;;5013614;28;20045;-87
2022/08/11 07:34:23;;;;;;;1.73;1.55;;;33.60;41.40;;;;;;5031612;28;20051;-87
2022/08/11 07:36:53;;;;;;;2.47;1.88;;;33.90;40.90;;;;;;5020390;28;20036;-86
2022/08/11 07:39:30;;;;;;;2.90;1.40;;;34.10;40.80;;;;;;5025910;28;20280;-84
2022/08/11 07:41:58;;;;;;;2.53;1.75;;;34.20;40.40;;;;;;5017851;28;20512;-83
2022/08/11 07:44:27;;;;;;;4.03;1.77;;;34.20;40.30;;;;;;5016755;28;20111;-84
2022/08/11 07:52:33;;;;;;;2.90;1.73;;;33.90;40.50;;;;;;5011845;28;20021;-86
2022/08/11 07:55:03;;;;;;;1.80;1.30;;;33.70;40.40;;;;;;5007088;28;20033;-84
2022/08/11 08:19:46;;;;;;;5.05;2.28;;;33.20;38.80;;;;;;5026127;28;20059;-85
2022/08/11 08:22:18;;;;;;;4.43;2.25;;;32.90;38.20;;;;;;4994774;28;20048;-87
2022/08/11 08:24:45;;;;;;;6.40;3.13;;;32.50;38.30;;;;;;5026472;28;20377;-89
2022/08/11 08:27:13;;;;;;;4.80;2.67;;;32.00;38.50;;;;;;4991737;28;20087;-87
2022/08/11 08:32:26;;;;;;;4.35;2.30;;;31.10;39.00;;;;;;5018104;28;20053;-86
2022/08/11 08:34:54;;;;;;;5.57;1.95;;;30.60;39.30;;;;;;4991976;28;20096;-84
2022/08/11 08:37:22;;;;;;;5.90;2.33;;;30.30;39.50;;;;;;5004620;28;20110;-85
2022/08/11 08:39:49;;;;;;;3.80;2.80;;;29.90;39.70;;;;;;4994678;28;20037;-89
2022/08/11 08:42:40;;;;;;;5.25;3.10;;;29.70;39.90;;;;;;4980660;28;20055;-92
2022/08/11 08:45:12;;;;;;;4.95;1.98;;;29.50;40.80;;;;;;5011524;28;20136;-92
2022/08/11 08:47:44;;;;;;;6.32;2.53;;;29.20;40.40;;;;;;5033815;28;20035;-96
2022/08/11 08:50:20;;;;;;;6.75;2.38;;;29.10;40.60;;;;;;5064047;28;20065;-96
2022/08/11 08:52:52;;;;;;;7.13;2.25;;;28.90;41.30;;;;;;5048794;28;20025;-94
2022/08/11 08:55:19;;;;;;;3.50;2.42;;;28.80;40.90;;;;;;5055891;28;20080;-92
2022/08/11 08:57:49;;;;;;;5.20;2.20;;;28.60;41.00;;;;;;5030379;28;20073;-85
2022/08/11 09:00:16;;;;;;;6.05;2.38;;;28.50;41.20;;;;;;5048629;28;20692;-85
2022/08/11 09:02:43;;;;;;;5.10;2.00;;;28.50;41.30;;;;;;5051376;28;20119;-84
2022/08/11 09:05:10;;;;;;;3.40;2.00;;;28.40;41.30;;;;;;5037585;28;20049;-86
2022/08/11 09:07:37;;;;;;;7.30;2.63;;;28.40;41.40;;;;;;5039121;28;20029;-86
2022/08/11 09:10:05;;;;;;;4.25;2.20;;;28.50;41.40;;;;;;5036819;28;20171;-90
2022/08/11 09:12:33;;;;;;;4.75;2.13;;;28.50;41.40;;;;;;5004927;28;20053;-83
2022/08/11 09:15:03;;;;;;;7.20;2.53;;;28.60;41.40;;;;;;5025485;28;20022;-88
2022/08/11 09:17:43;;;;;;;7.22;2.25;;;28.60;41.40;;;;;;5027987;28;20033;-90
2022/08/11 09:20:18;;;;;;;3.85;1.88;;;28.60;41.30;;;;;;5012076;28;20029;-85
2022/08/11 09:28:19;;;;;;;3.55;2.40;;;28.70;41.20;;;;;;5012032;28;20562;-85
2022/08/11 09:30:52;;;;;;;6.68;2.28;;;28.70;41.10;;;;;;5017953;28;20451;-82
2022/08/11 09:33:19;;;;;;;5.43;2.47;;;28.80;41.00;;;;;;5011673;28;20712;-83
2022/08/11 09:35:47;;;;;;;3.53;1.70;;;28.80;40.90;;;;;;5025283;28;20044;-82
2022/08/11 09:41:07;;;;;;;5.00;2.15;;;28.90;40.90;;;;;;5012411;28;20044;-81
2022/08/11 09:46:27;;;;;;;7.90;2.67;;;29.00;40.70;;;;;;5035800;28;20055;-82
2022/08/11 09:48:57;;;;;;;6.35;1.77;;;29.00;40.70;;;;;;5028228;28;20448;-81
2022/08/11 09:51:28;;;;;;;2.95;1.83;;;29.00;40.60;;;;;;5017320;28;20033;-82
2022/08/11 09:53:54;;;;;;;5.53;1.65;;;29.10;40.50;;;;;;5028698;28;20044;-83
2022/08/11 09:59:08;;;;;;;3.42;1.83;;;29.20;40.30;;;;;;5026876;28;20396;-81
2022/08/11 10:01:45;;;;;;;5.95;1.80;;;29.20;40.20;;;;;;5032735;28;20190;-89
2022/08/11 10:04:44;;;;;;;3.97;2.00;;;29.30;40.20;;;;;;5013351;28;20036;-91
2022/08/11 10:07:14;;;;;;;5.22;1.80;;;29.40;40.00;;;;;;5010562;28;20219;-90
2022/08/11 10:09:43;;;;;;;9.38;1.52;;;29.40;39.90;;;;;;5039450;28;20041;-95
2022/08/11 10:12:34;;;;;;;2.38;1.60;;;29.50;39.70;;;;;;5045590;28;20072;-91
2022/08/11 10:20:43;;;;;;;3.35;1.58;;;29.50;39.30;;;;;;5044603;28;20082;-91
2022/08/11 10:28:44;;;;;;;3.30;1.67;;;29.70;39.30;;;;;;5018201;28;20399;-95
2022/08/11 10:33:59;;;;;;;3.15;1.60;;;29.90;39.00;;;;;;5030591;28;20029;-86
2022/08/11 10:36:42;;;;;;;2.60;1.83;;;29.90;38.80;;;;;;5032167;28;20025;-87
2022/08/11 10:39:15;;;;;;;4.88;1.88;;;30.00;38.70;;;;;;5000075;28;20098;-86
2022/08/11 10:44:37;;;;;;;4.15;1.60;;;30.10;38.40;;;;;;5015129;28;20363;-88
2022/08/11 10:51:11;;;;;;;2.53;1.75;;;30.20;38.20;;;;;;5022546;28;20057;-86
2022/08/11 11:00:57;;;;;;;2.38;1.60;;;30.50;37.70;;;;;;5027755;28;20055;-90
2022/08/11 11:03:29;;;;;;;4.60;2.05;;;30.60;37.50;;;;;;5018679;28;20083;-86
2022/08/11 11:06:16;;;;;;;2.83;1.80;;;30.60;37.30;;;;;;5029789;28;20126;-85
2022/08/11 11:08:52;;;;;;;3.75;1.67;;;30.70;37.30;;;;;;5031708;28;20393;-85
2022/08/11 11:11:21;;;;;;;3.67;1.70;;;30.70;37.10;;;;;;5018074;28;20464;-87
2022/08/11 11:19:37;;;;;;;1.45;1.27;;;31.00;36.80;;;;;;5020126;28;20149;-84
2022/08/11 11:22:37;;;;;;;4.60;1.80;;;31.10;36.40;;;;;;5029351;28;20110;-84
2022/08/11 11:25:27;;;;;;;5.28;1.40;;;31.10;36.10;;;;;;4992480;28;20025;-86
2022/08/11 11:28:25;;;;;;;3.20;1.25;;;31.20;35.60;;;;;;5028628;28;20040;-86
2022/08/11 11:31:09;;;;;;;1.45;0.90;;;31.30;35.60;;;;;;5016868;28;20419;-86
2022/08/11 11:34:11;;;;;;;3.50;1.48;;;31.30;35.10;;;;;;5033204;28;20025;-86
2022/08/11 11:36:55;;;;;;;4.03;1.65;;;31.40;34.60;;;;;;5030295;28;20029;-86
2022/08/11 11:39:24;;;;;;;4.00;1.50;;;31.50;34.80;;;;;;5029581;28;20048;-86
2022/08/11 11:41:53;;;;;;;3.63;2.17;;;31.50;35.10;;;;;;5013659;28;20217;-86
2022/08/11 11:44:21;;;;;;;5.05;1.90;;;31.60;35.40;;;;;;4982969;28;20533;-90
2022/08/11 11:46:48;;;;;;;2.33;1.35;;;31.60;35.50;;;;;;4998870;28;20176;-83
2022/08/11 11:49:17;;;;;;;5.88;1.70;;;31.70;35.30;;;;;;4998993;28;20030;-85
2022/08/11 11:51:47;;;;;;;4.00;1.77;;;31.70;35.20;;;;;;4996817;28;20100;-85
2022/08/11 11:54:15;;;;;;;3.03;1.85;;;31.80;35.30;;;;;;4976903;28;20030;-85
2022/08/11 11:56:42;;;;;;;1.88;1.67;;;31.90;35.40;;;;;;5026792;28;20471;-85
2022/08/11 12:01:55;;;;;;;1.50;1.40;;;32.00;35.50;;;;;;5026041;28;20091;-86
2022/08/11 12:04:22;;;;;;;1.98;1.60;;;32.10;35.40;;;;;;5002598;28;20055;-86
2022/08/11 12:06:49;;;;;;;2.40;1.67;;;32.10;35.50;;;;;;5031210;28;20043;-86
2022/08/11 12:09:17;;;;;;;3.13;1.80;;;32.20;35.50;;;;;;5007989;28;20088;-85
2022/08/11 12:14:42;;;;;;;3.45;1.77;;;32.30;35.50;;;;;;5012728;28;20060;-86
2022/08/11 12:17:08;;;;;;;1.95;1.58;;;32.30;35.50;;;;;;4982616;28;20124;-84
2022/08/11 12:19:34;;;;;;;2.80;1.63;;;32.40;35.50;;;;;;5013987;28;20071;-86
2022/08/11 12:27:32;;;;;;;3.45;1.60;;;32.60;35.30;;;;;;5013032;28;20026;-84
2022/08/11 12:30:10;;;;;;;3.13;1.60;;;32.80;35.30;;;;;;4982037;28;20095;-84
2022/08/11 12:32:38;;;;;;;4.05;2.05;;;32.80;35.10;;;;;;5016326;28;20030;-84
2022/08/11 12:35:05;;;;;;;5.72;2.10;;;32.90;35.10;;;;;;4983232;28;20110;-84
2022/08/11 12:37:39;;;;;;;3.83;1.40;;;32.90;35.00;;;;;;5025528;28;20029;-85
2022/08/11 12:45:46;;;;;;;2.60;1.70;;;33.20;34.50;;;;;;5032005;28;20116;-84
2022/08/11 12:54:06;;;;;;;3.13;2.08;;;33.40;34.10;;;;;;5033210;28;20025;-86
2022/08/11 13:05:03;;;;;;;10.00;1.95;;;33.80;33.50;;;;;;5012935;28;20029;-84
2022/08/11 13:07:32;;;;;;;2.83;1.70;;;34.00;33.50;;;;;;5009779;28;20033;-85
2022/08/11 13:10:01;;;;;;;2.45;1.65;;;34.20;33.40;;;;;;5007174;28;20047;-85
2022/08/11 13:12:49;;;;;;;2.35;1.48;;;34.40;33.50;;;;;;5014343;28;20028;-86
2022/08/11 13:15:22;;;;;;;3.15;1.20;;;34.60;33.40;;;;;;5015395;28;20018;-85
2022/08/11 13:17:51;;;;;;;2.28;1.27;;;34.80;33.30;;;;;;5012647;28;20029;-85
2022/08/11 13:20:19;;;;;;;2.10;1.35;;;35.00;33.20;;;;;;4995271;28;20093;-87
2022/08/11 13:22:54;;;;;;;2.20;1.38;;;35.20;33.10;;;;;;5024920;28;20037;-85
2022/08/11 13:25:23;;;;;;;3.17;1.73;;;35.40;33.60;;;;;;5006622;28;20063;-85
2022/08/11 13:27:51;;;;;;;1.88;1.38;;;35.70;33.00;;;;;;4974235;28;20044;-85
2022/08/11 13:33:03;;;;;;;1.40;1.05;;;36.10;32.70;;;;;;5007821;28;20025;-85
2022/08/11 13:35:31;;;;;;;1.55;1.15;;;36.40;32.60;;;;;;5025678;28;20350;-90
2022/08/11 13:38:01;;;;;;;1.33;1.20;;;36.60;32.40;;;;;;5027438;28;20131;-92
2022/08/11 13:40:28;;;;;;;2.90;1.55;;;36.80;32.30;;;;;;5022196;28;20037;-87
2022/08/11 13:42:57;;;;;;;3.65;1.67;;;37.00;32.10;;;;;;4992991;28;20034;-88
2022/08/11 13:45:25;;;;;;;2.13;1.13;;;37.30;32.10;;;;;;4997297;28;20040;-88
2022/08/11 13:47:54;;;;;;;3.38;1.15;;;37.50;31.90;;;;;;4999188;28;20041;-87
2022/08/11 13:51:29;;;;;;;3.60;1.20;;;37.70;31.80;;;;;;4993780;28;20049;-85
2022/08/11 13:53:10;;;;;;;1.20;0.90;;;37.90;32.30;;;;;;4995428;28;20814;-86
2022/08/11 13:55:39;;;;;;;2.03;1.42;;;38.10;32.10;;;;;;5010166;28;20137;-88
2022/08/11 13:58:07;;;;;;;1.52;0.98;;;38.30;31.20;;;;;;4982585;28;20046;-89
2022/08/11 14:00:33;;;;;;;1.98;1.10;;;38.50;31.00;;;;;;5010512;28;20528;-88
2022/08/11 14:02:59;;;;;;;1.40;1.30;;;38.80;31.00;;;;;;5031185;28;20034;-88
2022/08/11 14:05:32;;;;;;;1.45;0.90;;;39.00;30.90;;;;;;5023263;28;20021;-86
2022/08/11 14:08:01;;;;;;;1.38;1.02;;;39.20;30.70;;;;;;4994045;28;20084;-89
2022/08/11 14:10:29;;;;;;;1.42;1.00;;;39.30;30.50;;;;;;4988613;28;20045;-88
2022/08/11 14:15:49;;;;;;;3.47;1.65;;;39.80;30.40;;;;;;5013815;28;20115;-88
2022/08/11 14:18:23;;;;;;;2.33;1.05;;;39.90;30.80;;;;;;4999917;28;20075;-86
2022/08/11 14:23:45;;;;;;;2.00;1.33;;;40.20;30.00;;;;;;5009961;28;20503;-86
2022/08/11 14:26:25;;;;;;;1.05;0.95;;;40.40;29.90;;;;;;5025226;28;20037;-87
2022/08/11 14:29:13;;;;;;;1.13;1.00;;;40.50;29.90;;;;;;5027141;28;20037;-88
2022/08/11 14:32:02;;;;;;;1.10;1.00;;;40.70;29.70;;;;;;5032036;28;20109;-89
2022/08/11 14:34:30;;;;;;;1.92;1.05;;;40.90;29.70;;;;;;5014223;28;20071;-89
2022/08/11 14:37:01;;;;;;;1.20;1.10;;;41.00;29.60;;;;;;5014576;28;20055;-89
2022/08/11 14:39:30;;;;;;;2.95;1.15;;;41.20;29.60;;;;;;4983646;28;20041;-87
2022/08/11 14:47:38;;;;;;;0.70;0.70;;;41.50;29.30;;;;;;5011636;28;20095;-86
2022/08/11 14:50:07;;;;;;;2.58;1.00;;;41.60;29.30;;;;;;4996727;28;20064;-85
2022/08/11 14:52:37;;;;;;;1.63;1.20;;;41.80;29.30;;;;;;5001334;28;20401;-84
2022/08/11 14:57:50;;;;;;;1.80;0.98;;;41.90;29.20;;;;;;5028159;28;20037;-86
2022/08/11 15:00:17;;;;;;;1.23;1.13;;;42.00;29.20;;;;;;5013421;28;20041;-88
2022/08/11 15:05:32;;;;;;;2.40;1.35;;;42.20;29.00;;;;;;5027938;28;20316;-83
2022/08/11 15:07:58;;;;;;;1.52;1.33;;;42.30;29.10;;;;;;5009433;28;20135;-83
2022/08/11 15:10:25;;;;;;;0.85;0.70;;;42.40;29.10;;;;;;5014558;28;20647;-89
2022/08/11 15:12:52;;;;;;;1.90;1.25;;;42.40;28.90;;;;;;5012221;28;20035;-85
2022/08/11 15:18:06;;;;;;;2.22;1.10;;;42.40;27.90;;;;;;5026850;28;20067;-83
2022/08/11 15:26:09;;;;;;;1.15;1.02;;;40.90;27.20;;;;;;5028129;28;20025;-85
2022/08/11 15:37:25;;;;;;;1.20;1.10;;;39.50;27.40;;;;;;5026571;28;20047;-83
2022/08/11 15:46:00;;;;;;;2.70;1.23;;;39.00;27.70;;;;;;5017230;28;20110;-84
2022/08/11 15:48:32;;;;;;;1.33;0.88;;;38.90;27.70;;;;;;5027294;28;20037;-90
2022/08/11 15:51:08;;;;;;;1.23;1.00;;;38.80;27.80;;;;;;4997898;28;20041;-86
2022/08/11 15:53:44;;;;;;;1.40;0.93;;;38.70;27.50;;;;;;5024180;28;20104;-85
2022/08/11 15:56:11;;;;;;;1.20;0.95;;;38.70;27.60;;;;;;5014755;28;20030;-85
2022/08/11 16:04:23;;;;;;;1.70;1.05;;;38.50;27.40;;;;;;5017629;28;20034;-84
2022/08/11 16:06:54;;;;;;;1.08;0.98;;;38.50;27.30;;;;;;5027337;28;20029;-85
2022/08/11 16:09:34;;;;;;;2.13;1.02;;;38.40;27.30;;;;;;5027113;28;20037;-85
2022/08/11 16:12:08;;;;;;;2.38;1.10;;;38.30;27.20;;;;;;5017404;28;20036;-85
2022/08/11 16:17:26;;;;;;;1.45;1.17;;;38.20;27.40;;;;;;5027076;28;20059;-85
2022/08/11 16:19:57;;;;;;;1.30;1.08;;;38.10;27.50;;;;;;5028550;28;20055;-85
2022/08/11 16:22:36;;;;;;;1.90;1.00;;;38.00;27.40;;;;;;5005030;28;20451;-83
2022/08/11 16:25:06;;;;;;;2.03;0.73;;;37.90;27.20;;;;;;4991863;28;20277;-86
2022/08/11 16:27:37;;;;;;;1.92;0.82;;;37.80;27.30;;;;;;5015484;28;20508;-87
2022/08/11 16:30:07;;;;;;;1.95;1.10;;;37.70;27.40;;;;;;5029239;28;20471;-84
2022/08/11 16:32:35;;;;;;;3.05;0.90;;;37.70;27.50;;;;;;5028359;28;20029;-84
2022/08/11 16:40:50;;;;;;;1.55;0.80;;;37.40;27.30;;;;;;5016517;28;20511;-84
2022/08/11 16:48:52;;;;;;;1.45;0.80;;;37.20;27.30;;;;;;5013095;28;20050;-80
2022/08/11 16:51:21;;;;;;;1.00;0.82;;;37.10;27.20;;;;;;4990992;28;20112;-82
2022/08/11 16:53:49;;;;;;;2.88;1.17;;;37.00;27.00;;;;;;5005395;28;20040;-82
2022/08/11 16:56:19;;;;;;;5.85;1.08;;;36.90;27.00;;;;;;5024874;28;20172;-83
2022/08/11 17:01:37;;;;;;;2.63;0.98;;;36.80;27.10;;;;;;5025436;28;20150;-86
2022/08/11 17:18:38;;;;;;;2.25;0.98;;;36.20;26.70;;;;;;5017726;28;20030;-89
2022/08/11 17:21:01;;;;;;;3.92;1.05;;;36.20;26.60;;;;;;4994246;28;20069;-89
2022/08/11 17:26:17;;;;;;;1.42;0.70;;;36.10;26.60;;;;;;5025503;28;20040;-90
2022/08/11 17:28:44;;;;;;;3.03;1.00;;;36.00;26.60;;;;;;5026566;28;20033;-88
2022/08/11 17:36:44;;;;;;;1.10;0.70;;;35.90;26.70;;;;;;5011264;28;20032;-90
2022/08/11 17:39:13;;;;;;;2.20;1.10;;;35.80;26.80;;;;;;5015166;28;20099;-91
2022/08/11 17:49:59;;;;;;;3.45;0.80;;;35.60;26.80;;;;;;4993312;28;20044;-86
2022/08/11 18:00:42;;;;;;;1.17;0.88;;;35.40;26.80;;;;;;5035496;28;20241;-82
2022/08/11 18:03:28;;;;;;;1.83;1.05;;;35.20;26.70;;;;;;5029114;28;20021;-81
2022/08/11 18:05:55;;;;;;;3.15;1.33;;;35.20;26.80;;;;;;5005239;28;20576;-82
